Time;durP1;ratioP1;P1;durP2;ratioP2;P2;SDS_P1;SDS_P2;PMS_P1;PMS_P2;Temp;Humidity;BMP_temperature;BMP_pressure;BME280_temperature;BME280_humidity;BME280_pressure;Samples;Min_cycle;Max_cycle;Signal;HPM_P1;HPM_P2
2021/06/05 00:00:13;;;;;;;47.83;34.22;;;;;;;;;;4420681;32;20169;-74
2021/06/05 00:02:38;;;;;;;41.70;29.95;;;;;;;;;;4420947;32;20594;-73
2021/06/05 00:05:05;;;;;;;45.25;32.35;;;;;;;;;;4421097;32;20150;-74
2021/06/05 00:07:30;;;;;;;48.10;34.40;;;;;;;;;;4420081;32;20180;-74
2021/06/05 00:09:55;;;;;;;50.90;33.90;;;;;;;;;;4430627;32;20547;-73
2021/06/05 00:12:22;;;;;;;53.40;37.67;;;;;;;;;;4434578;32;20291;-73
2021/06/05 00:14:47;;;;;;;48.33;34.15;;;;;;;;;;4426180;32;20286;-73
2021/06/05 00:17:12;;;;;;;48.72;33.83;;;;;;;;;;4424738;32;20261;-73
2021/06/05 00:19:38;;;;;;;54.55;36.08;;;;;;;;;;4418300;32;20232;-73
2021/06/05 00:22:03;;;;;;;51.13;34.05;;;;;;;;;;4409408;32;20173;-74
2021/06/05 00:24:29;;;;;;;53.17;37.35;;;;;;;;;;4434454;32;20270;-73
2021/06/05 00:26:54;;;;;;;56.33;37.70;;;;;;;;;;4406679;32;20173;-73
2021/06/05 00:29:19;;;;;;;56.03;39.95;;;;;;;;;;4428674;32;20560;-73
2021/06/05 00:31:45;;;;;;;56.88;39.13;;;;;;;;;;4420808;32;20145;-74
2021/06/05 00:34:10;;;;;;;51.55;35.53;;;;;;;;;;4413891;32;20230;-74
2021/06/05 00:36:36;;;;;;;53.92;39.78;;;;;;;;;;4421566;32;20183;-74
2021/06/05 00:39:01;;;;;;;48.25;35.90;;;;;;;;;;4412918;32;20200;-73
2021/06/05 00:41:27;;;;;;;56.33;38.63;;;;;;;;;;4431274;32;20567;-73
2021/06/05 00:43:56;;;;;;;54.78;39.00;;;;;;;;;;4436101;32;20126;-74
2021/06/05 00:46:22;;;;;;;53.42;36.78;;;;;;;;;;4436058;32;20616;-73
2021/06/05 00:48:47;;;;;;;59.63;42.75;;;;;;;;;;4421126;32;20176;-74
2021/06/05 00:51:13;;;;;;;60.85;42.38;;;;;;;;;;4425136;32;20149;-73
2021/06/05 00:53:38;;;;;;;62.47;44.53;;;;;;;;;;4422460;32;20150;-73
2021/06/05 00:56:06;;;;;;;56.83;41.08;;;;;;;;;;4405229;32;20165;-73
2021/06/05 00:58:31;;;;;;;56.63;39.28;;;;;;;;;;4416691;32;20201;-74
2021/06/05 01:01:04;;;;;;;55.40;40.03;;;;;;;;;;4420674;32;20153;-74
2021/06/05 01:03:30;;;;;;;55.75;41.58;;;;;;;;;;4419981;32;20134;-73
2021/06/05 01:05:57;;;;;;;55.22;39.83;;;;;;;;;;4421995;32;20185;-73
2021/06/05 01:08:31;;;;;;;60.80;43.42;;;;;;;;;;4414100;32;20177;-74
2021/06/05 01:11:01;;;;;;;53.30;39.78;;;;;;;;;;4430238;32;20136;-73
2021/06/05 01:13:40;;;;;;;54.10;38.85;;;;;;;;;;4414039;32;20196;-73
2021/06/05 01:16:07;;;;;;;61.42;44.45;;;;;;;;;;4410778;32;20213;-73
2021/06/05 01:18:35;;;;;;;56.22;38.30;;;;;;;;;;4423060;32;20171;-73
2021/06/05 01:21:19;;;;;;;62.67;42.88;;;;;;;;;;4421432;32;20149;-72
2021/06/05 01:23:44;;;;;;;68.80;46.35;;;;;;;;;;4422002;32;20157;-73
2021/06/05 01:26:25;;;;;;;63.20;45.08;;;;;;;;;;4420773;32;20206;-73
2021/06/05 01:28:50;;;;;;;60.83;42.70;;;;;;;;;;4418586;32;20138;-73
2021/06/05 01:31:19;;;;;;;63.45;45.05;;;;;;;;;;4420103;32;20222;-72
2021/06/05 01:33:45;;;;;;;52.45;38.55;;;;;;;;;;4414598;32;20177;-73
2021/06/05 01:36:11;;;;;;;57.60;41.55;;;;;;;;;;4411796;32;20686;-73
2021/06/05 01:38:38;;;;;;;57.17;40.80;;;;;;;;;;4424328;32;20142;-73
2021/06/05 01:41:04;;;;;;;55.63;40.28;;;;;;;;;;4424614;32;20154;-72
2021/06/05 01:43:29;;;;;;;52.15;38.00;;;;;;;;;;4405173;32;20188;-73
2021/06/05 01:45:56;;;;;;;53.75;38.55;;;;;;;;;;4420827;32;20577;-73
2021/06/05 01:48:22;;;;;;;46.92;35.60;;;;;;;;;;4430928;32;20258;-73
2021/06/05 01:50:47;;;;;;;53.03;38.13;;;;;;;;;;4434603;32;20130;-73
2021/06/05 01:53:15;;;;;;;51.67;38.08;;;;;;;;;;4419788;32;20248;-74
2021/06/05 01:55:49;;;;;;;51.03;36.45;;;;;;;;;;4433739;32;20247;-73
2021/06/05 01:58:15;;;;;;;56.55;37.85;;;;;;;;;;4432701;32;20160;-73
2021/06/05 02:00:46;;;;;;;53.97;38.78;;;;;;;;;;4421429;32;20187;-73
2021/06/05 02:03:12;;;;;;;53.35;38.63;;;;;;;;;;4439040;32;20153;-73
2021/06/05 02:05:38;;;;;;;55.58;40.12;;;;;;;;;;4431472;32;20157;-74
2021/06/05 02:08:04;;;;;;;63.15;43.72;;;;;;;;;;4439058;32;20142;-73
2021/06/05 02:10:30;;;;;;;58.63;40.95;;;;;;;;;;4437250;32;20547;-74
2021/06/05 02:12:56;;;;;;;62.65;41.95;;;;;;;;;;4424502;32;20188;-74
2021/06/05 02:15:24;;;;;;;60.60;42.53;;;;;;;;;;4424140;32;20196;-74
2021/06/05 02:17:49;;;;;;;54.08;39.13;;;;;;;;;;4416428;32;20594;-74
2021/06/05 02:20:18;;;;;;;68.07;46.10;;;;;;;;;;4409143;32;20184;-73
2021/06/05 02:22:44;;;;;;;82.12;54.92;;;;;;;;;;4421597;32;20203;-74
2021/06/05 02:25:11;;;;;;;82.00;54.22;;;;;;;;;;4410214;32;20169;-75
2021/06/05 02:27:36;;;;;;;75.50;49.53;;;;;;;;;;4417418;32;20189;-74
2021/06/05 02:30:02;;;;;;;86.90;53.95;;;;;;;;;;4421280;32;20250;-73
2021/06/05 02:32:28;;;;;;;80.40;50.90;;;;;;;;;;4431025;32;20149;-73
2021/06/05 02:34:55;;;;;;;85.12;54.38;;;;;;;;;;4433922;32;20174;-74
2021/06/05 02:37:23;;;;;;;85.80;52.30;;;;;;;;;;4417262;32;20158;-74
2021/06/05 02:39:52;;;;;;;78.37;49.40;;;;;;;;;;4437197;32;20145;-74
2021/06/05 02:42:19;;;;;;;92.70;54.67;;;;;;;;;;4426369;32;20192;-74
2021/06/05 02:44:46;;;;;;;95.82;53.47;;;;;;;;;;4425545;32;20294;-74
2021/06/05 02:47:12;;;;;;;85.93;51.63;;;;;;;;;;4425058;32;20177;-74
2021/06/05 02:49:38;;;;;;;88.65;51.53;;;;;;;;;;4438573;32;20535;-73
2021/06/05 02:52:05;;;;;;;96.53;54.17;;;;;;;;;;4438229;32;20228;-74
2021/06/05 02:54:30;;;;;;;85.28;48.60;;;;;;;;;;4408395;32;20201;-74
2021/06/05 02:56:56;;;;;;;110.70;59.97;;;;;;;;;;4407799;32;20586;-74
2021/06/05 02:59:21;;;;;;;98.72;53.85;;;;;;;;;;4408022;32;20614;-74
2021/06/05 03:01:47;;;;;;;93.62;50.03;;;;;;;;;;4438579;32;20145;-74
2021/06/05 03:04:12;;;;;;;98.40;52.72;;;;;;;;;;4437766;32;20134;-74
2021/06/05 03:06:37;;;;;;;86.00;50.33;;;;;;;;;;4415685;32;20253;-73
2021/06/05 03:09:03;;;;;;;83.53;48.25;;;;;;;;;;4410735;32;20161;-74
2021/06/05 03:11:29;;;;;;;92.50;52.58;;;;;;;;;;4421555;32;20221;-74
2021/06/05 03:13:54;;;;;;;88.20;47.25;;;;;;;;;;4407547;32;20169;-74
2021/06/05 03:16:20;;;;;;;86.05;47.05;;;;;;;;;;4408625;32;20162;-73
2021/06/05 03:18:46;;;;;;;93.75;52.20;;;;;;;;;;4407014;32;20154;-73
2021/06/05 03:21:15;;;;;;;89.43;49.33;;;;;;;;;;4407236;32;20220;-73
2021/06/05 03:23:40;;;;;;;72.57;44.38;;;;;;;;;;4406373;32;20162;-72
2021/06/05 03:26:05;;;;;;;73.57;42.33;;;;;;;;;;4426374;32;20466;-74
2021/06/05 03:28:32;;;;;;;62.13;36.80;;;;;;;;;;4437345;32;20272;-74
2021/06/05 03:30:57;;;;;;;71.28;41.72;;;;;;;;;;4422164;32;20562;-73
2021/06/05 03:33:23;;;;;;;74.78;42.60;;;;;;;;;;4418984;32;20210;-73
2021/06/05 03:35:49;;;;;;;75.65;44.45;;;;;;;;;;4413764;32;20243;-73
2021/06/05 03:38:15;;;;;;;64.65;39.60;;;;;;;;;;4426982;32;20601;-73
2021/06/05 03:40:40;;;;;;;69.90;40.47;;;;;;;;;;4423616;32;20166;-73
2021/06/05 03:43:06;;;;;;;67.95;38.78;;;;;;;;;;4436095;32;20472;-73
2021/06/05 03:45:31;;;;;;;69.12;38.83;;;;;;;;;;4434194;32;20594;-74
2021/06/05 03:47:59;;;;;;;63.97;37.80;;;;;;;;;;4437406;32;20152;-74
2021/06/05 03:50:27;;;;;;;64.47;36.83;;;;;;;;;;4426479;32;20468;-74
2021/06/05 03:52:52;;;;;;;72.80;39.97;;;;;;;;;;4429241;32;20145;-73
2021/06/05 03:55:17;;;;;;;62.92;35.78;;;;;;;;;;4428605;32;20619;-73
2021/06/05 03:57:42;;;;;;;64.03;36.90;;;;;;;;;;4423193;32;20150;-74
2021/06/05 04:00:09;;;;;;;78.45;40.45;;;;;;;;;;4419181;32;20165;-74
2021/06/05 04:02:34;;;;;;;74.65;37.72;;;;;;;;;;4412157;32;20566;-73
2021/06/05 04:04:59;;;;;;;74.43;40.53;;;;;;;;;;4425920;32;20141;-74
2021/06/05 04:07:25;;;;;;;76.37;38.93;;;;;;;;;;4407708;32;20257;-75
2021/06/05 04:09:50;;;;;;;80.35;40.88;;;;;;;;;;4437069;32;20252;-73
2021/06/05 04:12:15;;;;;;;90.97;45.35;;;;;;;;;;4434672;32;20153;-73
2021/06/05 04:14:41;;;;;;;89.15;43.70;;;;;;;;;;4429253;32;20211;-73
2021/06/05 04:17:07;;;;;;;93.75;42.80;;;;;;;;;;4421420;32;20192;-72
2021/06/05 04:19:33;;;;;;;104.12;46.75;;;;;;;;;;4422282;32;20138;-73
2021/06/05 04:21:58;;;;;;;89.05;42.90;;;;;;;;;;4407968;32;20180;-73
2021/06/05 04:24:23;;;;;;;95.82;46.05;;;;;;;;;;4418381;32;20196;-73
2021/06/05 04:26:49;;;;;;;88.20;42.25;;;;;;;;;;4432849;32;20214;-74
2021/06/05 04:29:14;;;;;;;91.87;42.42;;;;;;;;;;4424789;32;20529;-74
2021/06/05 04:31:40;;;;;;;97.07;45.35;;;;;;;;;;4431593;32;20141;-73
2021/06/05 04:34:05;;;;;;;90.32;42.88;;;;;;;;;;4430173;32;20236;-73
2021/06/05 04:36:30;;;;;;;87.47;43.42;;;;;;;;;;4436274;32;20137;-73
2021/06/05 04:38:55;;;;;;;80.30;40.28;;;;;;;;;;4435154;32;20222;-73
2021/06/05 04:41:21;;;;;;;83.40;41.33;;;;;;;;;;4406425;32;20527;-73
2021/06/05 04:43:46;;;;;;;82.55;39.88;;;;;;;;;;4431770;32;20232;-73
2021/06/05 04:46:13;;;;;;;79.57;40.30;;;;;;;;;;4428904;32;20167;-73
2021/06/05 04:48:38;;;;;;;81.87;38.70;;;;;;;;;;4434992;32;20294;-74
2021/06/05 04:51:03;;;;;;;83.25;40.45;;;;;;;;;;4434992;32;20145;-74
2021/06/05 04:53:28;;;;;;;81.63;41.15;;;;;;;;;;4415079;32;20177;-74
2021/06/05 04:55:54;;;;;;;84.22;42.33;;;;;;;;;;4432009;32;20468;-74
2021/06/05 04:58:19;;;;;;;92.55;43.97;;;;;;;;;;4411906;32;20591;-74
2021/06/05 05:00:47;;;;;;;78.37;41.55;;;;;;;;;;4417770;32;20137;-73
2021/06/05 05:03:13;;;;;;;63.92;35.20;;;;;;;;;;4431819;32;20544;-74
2021/06/05 05:05:39;;;;;;;64.18;37.00;;;;;;;;;;4433533;32;20475;-73
2021/06/05 05:08:05;;;;;;;54.08;31.70;;;;;;;;;;4432204;32;20245;-73
2021/06/05 05:10:32;;;;;;;58.75;35.08;;;;;;;;;;4426453;32;20169;-73
2021/06/05 05:12:58;;;;;;;53.00;32.55;;;;;;;;;;4421804;32;20224;-73
2021/06/05 05:15:23;;;;;;;51.28;30.70;;;;;;;;;;4423106;32;20188;-73
2021/06/05 05:17:49;;;;;;;46.92;30.08;;;;;;;;;;4416877;32;20262;-72
2021/06/05 05:20:16;;;;;;;44.47;27.55;;;;;;;;;;4424590;32;20285;-74
2021/06/05 05:22:41;;;;;;;40.30;26.80;;;;;;;;;;4432870;32;20511;-73
2021/06/05 05:25:07;;;;;;;35.63;24.48;;;;;;;;;;4414843;32;20209;-74
2021/06/05 05:27:32;;;;;;;41.28;27.58;;;;;;;;;;4427382;32;20150;-72
2021/06/05 05:29:58;;;;;;;38.65;26.80;;;;;;;;;;4403621;32;20187;-74
2021/06/05 05:32:23;;;;;;;38.65;26.45;;;;;;;;;;4424846;32;20480;-73
2021/06/05 05:34:48;;;;;;;31.98;23.38;;;;;;;;;;4420955;32;20180;-73
2021/06/05 05:37:13;;;;;;;30.02;22.90;;;;;;;;;;4432050;32;20157;-73
2021/06/05 05:39:38;;;;;;;30.35;21.12;;;;;;;;;;4428782;32;20248;-73
2021/06/05 05:42:04;;;;;;;30.83;23.60;;;;;;;;;;4410529;32;20174;-73
2021/06/05 05:44:29;;;;;;;32.08;22.62;;;;;;;;;;4427902;32;20493;-72
2021/06/05 05:46:54;;;;;;;31.37;23.23;;;;;;;;;;4425579;32;20207;-72
2021/06/05 05:49:20;;;;;;;32.28;23.58;;;;;;;;;;4420353;32;20153;-73
2021/06/05 05:51:45;;;;;;;26.98;20.52;;;;;;;;;;4418549;32;20138;-74
2021/06/05 05:54:11;;;;;;;27.83;20.92;;;;;;;;;;4430763;32;20149;-74
2021/06/05 05:56:36;;;;;;;24.55;19.30;;;;;;;;;;4416860;32;20157;-74
2021/06/05 05:59:02;;;;;;;24.37;19.65;;;;;;;;;;4418178;32;20184;-74
2021/06/05 06:01:28;;;;;;;25.02;19.67;;;;;;;;;;4419623;32;20137;-74
2021/06/05 06:03:54;;;;;;;26.75;20.02;;;;;;;;;;4415159;32;20229;-74
2021/06/05 06:06:20;;;;;;;21.42;17.48;;;;;;;;;;4417238;32;20221;-74
2021/06/05 06:08:45;;;;;;;24.33;20.30;;;;;;;;;;4427694;32;20152;-73
2021/06/05 06:11:11;;;;;;;25.77;21.52;;;;;;;;;;4406846;32;20240;-73
2021/06/05 06:13:37;;;;;;;18.70;15.77;;;;;;;;;;4416105;32;20189;-74
2021/06/05 06:16:03;;;;;;;19.23;15.25;;;;;;;;;;4419876;32;20430;-73
2021/06/05 06:18:28;;;;;;;15.20;13.45;;;;;;;;;;4428390;32;20153;-74
2021/06/05 06:20:54;;;;;;;13.67;11.30;;;;;;;;;;4432005;32;20503;-73
2021/06/05 06:23:22;;;;;;;11.98;10.18;;;;;;;;;;4431920;32;20259;-73
2021/06/05 06:25:49;;;;;;;14.65;9.77;;;;;;;;;;4404028;32;20158;-74
2021/06/05 06:28:15;;;;;;;11.85;10.18;;;;;;;;;;4419486;32;20984;-73
2021/06/05 06:30:41;;;;;;;14.25;9.85;;;;;;;;;;4429943;32;20150;-72
2021/06/05 06:33:07;;;;;;;16.95;12.52;;;;;;;;;;4403751;32;20225;-72
2021/06/05 06:35:33;;;;;;;13.75;11.60;;;;;;;;;;4420346;32;20215;-73
2021/06/05 06:37:59;;;;;;;13.00;11.60;;;;;;;;;;4417530;32;20233;-73
2021/06/05 06:40:25;;;;;;;12.23;9.93;;;;;;;;;;4421896;32;20154;-73
2021/06/05 06:42:51;;;;;;;12.23;10.90;;;;;;;;;;4417540;32;20214;-72
2021/06/05 06:45:16;;;;;;;12.70;11.40;;;;;;;;;;4420641;32;20658;-73
2021/06/05 06:47:42;;;;;;;15.00;12.37;;;;;;;;;;4421044;32;20659;-73
2021/06/05 06:50:08;;;;;;;14.20;11.70;;;;;;;;;;4415857;32;20602;-74
2021/06/05 06:52:33;;;;;;;11.25;9.45;;;;;;;;;;4411324;32;20241;-74
2021/06/05 06:54:59;;;;;;;12.85;11.05;;;;;;;;;;4409778;32;20230;-74
2021/06/05 06:57:24;;;;;;;11.50;10.05;;;;;;;;;;4425217;32;20195;-74
2021/06/05 06:59:49;;;;;;;13.82;10.63;;;;;;;;;;4414589;32;20165;-74
2021/06/05 07:02:14;;;;;;;12.55;9.77;;;;;;;;;;4430865;32;20736;-73
2021/06/05 07:04:39;;;;;;;13.57;10.63;;;;;;;;;;4428344;32;20240;-73
2021/06/05 07:07:05;;;;;;;11.95;10.48;;;;;;;;;;4435985;32;20141;-73
2021/06/05 07:09:32;;;;;;;11.95;10.57;;;;;;;;;;4417599;32;20169;-73
2021/06/05 07:11:57;;;;;;;15.07;11.40;;;;;;;;;;4418460;32;20222;-72
2021/06/05 07:14:23;;;;;;;12.85;11.40;;;;;;;;;;4431483;32;20168;-73
2021/06/05 07:16:48;;;;;;;17.35;14.63;;;;;;;;;;4423954;32;20138;-73
2021/06/05 07:19:13;;;;;;;17.00;15.02;;;;;;;;;;4422863;32;20679;-73
2021/06/05 07:21:38;;;;;;;17.10;15.30;;;;;;;;;;4432498;32;20149;-73
2021/06/05 07:24:04;;;;;;;18.83;16.47;;;;;;;;;;4433264;32;20720;-73
2021/06/05 07:26:29;;;;;;;22.25;18.23;;;;;;;;;;4424084;32;20309;-73
2021/06/05 07:28:56;;;;;;;18.42;15.70;;;;;;;;;;4416813;32;20555;-73
2021/06/05 07:31:24;;;;;;;18.20;15.25;;;;;;;;;;4430229;32;20181;-74
2021/06/05 07:33:50;;;;;;;20.45;15.45;;;;;;;;;;4438011;32;20607;-73
2021/06/05 07:36:18;;;;;;;17.90;15.75;;;;;;;;;;4408932;32;20203;-73
2021/06/05 07:38:43;;;;;;;19.45;16.25;;;;;;;;;;4426858;32;20153;-73
2021/06/05 07:41:09;;;;;;;18.35;15.65;;;;;;;;;;4427597;32;20198;-73
2021/06/05 07:43:34;;;;;;;18.00;15.30;;;;;;;;;;4416550;32;20311;-73
2021/06/05 07:46:00;;;;;;;19.53;15.90;;;;;;;;;;4422919;32;20145;-73
2021/06/05 07:48:26;;;;;;;19.17;16.17;;;;;;;;;;4431467;32;20288;-72
2021/06/05 07:50:51;;;;;;;22.15;16.92;;;;;;;;;;4409839;32;20193;-73
2021/06/05 07:53:16;;;;;;;18.23;15.15;;;;;;;;;;4426008;32;20158;-73
2021/06/05 07:55:42;;;;;;;25.73;17.57;;;;;;;;;;4429237;32;20188;-73
2021/06/05 07:58:07;;;;;;;20.10;16.25;;;;;;;;;;4419547;32;20716;-73
2021/06/05 08:00:34;;;;;;;20.00;17.10;;;;;;;;;;4409701;32;20181;-72
2021/06/05 08:02:59;;;;;;;20.42;16.45;;;;;;;;;;4403303;32;20182;-75
2021/06/05 08:05:24;;;;;;;19.90;15.67;;;;;;;;;;4416018;32;20292;-72
2021/06/05 08:07:49;;;;;;;21.10;17.33;;;;;;;;;;4411099;32;20265;-74
2021/06/05 08:10:16;;;;;;;17.92;15.00;;;;;;;;;;4423923;32;20149;-72
2021/06/05 08:12:41;;;;;;;19.50;15.45;;;;;;;;;;4419727;32;20150;-73
2021/06/05 08:15:08;;;;;;;18.98;16.12;;;;;;;;;;4430829;32;20531;-75
2021/06/05 08:17:33;;;;;;;19.05;15.90;;;;;;;;;;4434844;32;20141;-72
2021/06/05 08:19:58;;;;;;;15.93;14.20;;;;;;;;;;4417222;32;20130;-72
2021/06/05 08:22:26;;;;;;;21.02;16.73;;;;;;;;;;4425444;32;20149;-73
2021/06/05 08:24:51;;;;;;;17.40;14.25;;;;;;;;;;4411676;32;20177;-73
2021/06/05 08:27:17;;;;;;;23.12;17.60;;;;;;;;;;4423249;32;20641;-73
2021/06/05 08:29:42;;;;;;;17.60;14.43;;;;;;;;;;4434452;32;20651;-73
2021/06/05 08:32:07;;;;;;;17.92;15.02;;;;;;;;;;4434053;32;20183;-73
2021/06/05 08:34:33;;;;;;;18.50;15.52;;;;;;;;;;4420330;32;20225;-73
2021/06/05 08:36:58;;;;;;;19.15;16.62;;;;;;;;;;4431100;32;20716;-73
2021/06/05 08:39:23;;;;;;;17.45;14.60;;;;;;;;;;4434203;32;20145;-73
2021/06/05 08:41:53;;;;;;;16.52;13.93;;;;;;;;;;4407066;32;20185;-73
2021/06/05 08:44:33;;;;;;;14.55;11.88;;;;;;;;;;4426012;32;20499;-73
2021/06/05 08:47:02;;;;;;;18.55;13.05;;;;;;;;;;4413141;32;20253;-73
2021/06/05 08:49:33;;;;;;;17.50;14.00;;;;;;;;;;4417238;32;20508;-74
2021/06/05 08:52:25;;;;;;;13.52;11.23;;;;;;;;;;4425389;32;20625;-73
2021/06/05 08:54:56;;;;;;;13.98;11.63;;;;;;;;;;4429562;32;20146;-74
2021/06/05 08:57:30;;;;;;;13.82;10.75;;;;;;;;;;4425929;32;20188;-74
2021/06/05 08:59:57;;;;;;;13.20;10.88;;;;;;;;;;4429990;32;20584;-73
2021/06/05 09:02:25;;;;;;;12.73;10.40;;;;;;;;;;4431248;32;20173;-72
2021/06/05 09:04:51;;;;;;;10.73;9.63;;;;;;;;;;4420033;32;20137;-74
2021/06/05 09:07:16;;;;;;;11.05;9.32;;;;;;;;;;4427320;32;20585;-72
2021/06/05 09:09:49;;;;;;;12.20;10.37;;;;;;;;;;4433028;32;20598;-73
2021/06/05 09:12:14;;;;;;;12.02;9.43;;;;;;;;;;4423639;32;20268;-73
2021/06/05 09:14:40;;;;;;;13.95;11.05;;;;;;;;;;4410061;32;20173;-73
2021/06/05 09:17:14;;;;;;;11.32;9.75;;;;;;;;;;4405620;32;20165;-73
2021/06/05 09:19:40;;;;;;;11.45;9.60;;;;;;;;;;4420798;32;20133;-73
2021/06/05 09:22:05;;;;;;;11.45;9.35;;;;;;;;;;4410986;32;20245;-73
2021/06/05 09:24:32;;;;;;;11.60;9.07;;;;;;;;;;4422461;32;20164;-72
2021/06/05 09:27:00;;;;;;;16.17;11.00;;;;;;;;;;4411111;32;20261;-73
2021/06/05 09:29:26;;;;;;;12.45;10.65;;;;;;;;;;4420696;32;20176;-72
2021/06/05 09:31:54;;;;;;;11.10;9.07;;;;;;;;;;4433446;32;20505;-71
2021/06/05 09:34:20;;;;;;;11.75;9.48;;;;;;;;;;4434643;32;20212;-71
2021/06/05 09:36:46;;;;;;;10.98;9.52;;;;;;;;;;4426076;32;20490;-72
2021/06/05 09:39:13;;;;;;;13.70;11.90;;;;;;;;;;4432436;32;20222;-71
2021/06/05 09:41:43;;;;;;;14.15;11.98;;;;;;;;;;4422351;32;20238;-73
2021/06/05 09:44:14;;;;;;;13.40;10.98;;;;;;;;;;4432982;32;20588;-73
2021/06/05 09:46:44;;;;;;;14.50;12.07;;;;;;;;;;4420271;32;20146;-73
2021/06/05 09:49:11;;;;;;;13.75;11.90;;;;;;;;;;4420569;32;20217;-72
2021/06/05 09:51:38;;;;;;;14.23;11.77;;;;;;;;;;4419179;32;20506;-72
2021/06/05 09:54:36;;;;;;;18.85;14.05;;;;;;;;;;4419449;32;20141;-72
2021/06/05 09:57:13;;;;;;;15.15;12.23;;;;;;;;;;4377086;32;20161;-72
2021/06/05 09:59:38;;;;;;;15.88;12.65;;;;;;;;;;4407122;32;20157;-71
2021/06/05 10:02:06;;;;;;;13.90;12.35;;;;;;;;;;4419445;32;20153;-71
2021/06/05 10:04:33;;;;;;;14.10;11.57;;;;;;;;;;4419532;32;20555;-72
2021/06/05 10:06:59;;;;;;;12.80;10.52;;;;;;;;;;4421743;32;20172;-71
2021/06/05 10:09:24;;;;;;;12.48;10.10;;;;;;;;;;4419440;32;20173;-72
2021/06/05 10:11:51;;;;;;;13.30;9.57;;;;;;;;;;4434162;32;20400;-72
2021/06/05 10:14:18;;;;;;;12.02;9.18;;;;;;;;;;4418962;32;20320;-72
2021/06/05 10:16:46;;;;;;;11.07;9.85;;;;;;;;;;4419155;32;20210;-71
2021/06/05 10:19:16;;;;;;;12.45;10.07;;;;;;;;;;4423094;32;20773;-72
2021/06/05 10:21:43;;;;;;;12.82;10.57;;;;;;;;;;4436915;32;20291;-73
2021/06/05 10:24:27;;;;;;;14.02;11.02;;;;;;;;;;4437626;32;20133;-73
2021/06/05 10:26:54;;;;;;;19.60;13.50;;;;;;;;;;4422379;32;20223;-73
2021/06/05 10:29:28;;;;;;;16.27;13.10;;;;;;;;;;4423277;32;20157;-75
2021/06/05 10:31:54;;;;;;;17.33;12.95;;;;;;;;;;4439165;32;20136;-79
2021/06/05 10:34:30;;;;;;;15.32;12.37;;;;;;;;;;4437034;32;20156;-76
2021/06/05 10:36:55;;;;;;;12.75;11.35;;;;;;;;;;4437492;32;20141;-76
2021/06/05 10:39:25;;;;;;;16.73;12.70;;;;;;;;;;4438920;32;20229;-77
2021/06/05 10:41:58;;;;;;;15.02;10.88;;;;;;;;;;4437569;32;20334;-78
2021/06/05 10:44:24;;;;;;;12.35;10.32;;;;;;;;;;4422423;32;20232;-77
2021/06/05 10:47:01;;;;;;;13.68;10.45;;;;;;;;;;4423287;32;20211;-77
2021/06/05 10:49:26;;;;;;;16.98;11.65;;;;;;;;;;4437435;32;20137;-78
2021/06/05 10:52:07;;;;;;;16.30;11.38;;;;;;;;;;4437393;32;20161;-78
2021/06/05 10:54:33;;;;;;;18.00;11.93;;;;;;;;;;4436297;32;20643;-78
2021/06/05 10:57:18;;;;;;;19.00;12.70;;;;;;;;;;4423493;32;20250;-78
2021/06/05 10:59:46;;;;;;;18.40;12.93;;;;;;;;;;4422386;32;20165;-78
2021/06/05 11:02:30;;;;;;;20.80;12.90;;;;;;;;;;4433597;32;20142;-78
2021/06/05 11:04:55;;;;;;;18.45;12.02;;;;;;;;;;4422040;32;20236;-78
2021/06/05 11:07:28;;;;;;;18.73;13.27;;;;;;;;;;4420842;32;20487;-78
2021/06/05 11:09:55;;;;;;;18.98;13.15;;;;;;;;;;4406997;32;20265;-78
2021/06/05 11:12:20;;;;;;;18.30;12.80;;;;;;;;;;4407373;32;20166;-77
2021/06/05 11:14:48;;;;;;;16.95;12.35;;;;;;;;;;4404182;32;20528;-78
2021/06/05 11:17:17;;;;;;;14.57;10.82;;;;;;;;;;4406068;32;20131;-78
2021/06/05 11:19:52;;;;;;;17.98;11.98;;;;;;;;;;4404666;32;20198;-78
2021/06/05 11:22:18;;;;;;;21.00;13.20;;;;;;;;;;4405250;32;20509;-78
2021/06/05 11:25:03;;;;;;;19.80;13.82;;;;;;;;;;4406686;32;20156;-77
2021/06/05 11:27:38;;;;;;;23.92;14.68;;;;;;;;;;4406179;32;20242;-78
2021/06/05 11:30:04;;;;;;;23.50;14.73;;;;;;;;;;4405569;32;20164;-78
2021/06/05 11:32:35;;;;;;;26.33;16.90;;;;;;;;;;4407602;32;20531;-79
2021/06/05 11:35:06;;;;;;;33.55;19.58;;;;;;;;;;4404381;32;20223;-77
2021/06/05 11:37:34;;;;;;;31.02;19.67;;;;;;;;;;4406300;32;20176;-78
2021/06/05 11:40:02;;;;;;;32.92;18.80;;;;;;;;;;4405877;32;20166;-78
2021/06/05 11:42:31;;;;;;;31.67;18.85;;;;;;;;;;4405001;32;20230;-80
2021/06/05 11:44:56;;;;;;;31.17;19.42;;;;;;;;;;4406652;32;20196;-79
2021/06/05 11:47:21;;;;;;;30.02;18.90;;;;;;;;;;4406016;32;20196;-78
2021/06/05 11:49:48;;;;;;;30.83;19.40;;;;;;;;;;4406375;32;20146;-77
2021/06/05 11:52:33;;;;;;;30.00;19.27;;;;;;;;;;4404428;32;20159;-77
2021/06/05 11:54:58;;;;;;;29.67;18.50;;;;;;;;;;4416930;32;20145;-78
2021/06/05 11:57:26;;;;;;;29.48;19.35;;;;;;;;;;4420928;32;20134;-78
2021/06/05 11:59:53;;;;;;;26.42;19.10;;;;;;;;;;4421129;32;20242;-77
2021/06/05 12:02:23;;;;;;;25.90;19.25;;;;;;;;;;4418915;32;20176;-77
2021/06/05 12:04:52;;;;;;;25.77;18.42;;;;;;;;;;4418763;32;20157;-75
2021/06/05 12:07:26;;;;;;;21.37;16.15;;;;;;;;;;4420153;32;20133;-77
2021/06/05 12:09:56;;;;;;;23.10;17.83;;;;;;;;;;4419477;32;20185;-78
2021/06/05 12:12:22;;;;;;;24.27;16.75;;;;;;;;;;4419903;32;20187;-77
2021/06/05 12:14:49;;;;;;;19.73;15.13;;;;;;;;;;4418974;32;20169;-77
2021/06/05 12:17:31;;;;;;;19.35;15.60;;;;;;;;;;4418577;32;20567;-77
2021/06/05 12:20:24;;;;;;;16.55;13.38;;;;;;;;;;4403753;32;20229;-77
2021/06/05 12:22:52;;;;;;;16.65;13.65;;;;;;;;;;4404823;32;20203;-77
2021/06/05 12:25:23;;;;;;;16.40;12.68;;;;;;;;;;4402841;32;20162;-76
2021/06/05 12:27:48;;;;;;;16.00;13.40;;;;;;;;;;4403325;32;20187;-78
2021/06/05 12:30:16;;;;;;;17.25;13.70;;;;;;;;;;4403841;32;20499;-78
2021/06/05 12:32:53;;;;;;;16.58;13.15;;;;;;;;;;4403888;32;20137;-77
2021/06/05 12:35:19;;;;;;;17.67;14.25;;;;;;;;;;4404241;32;20122;-76
2021/06/05 12:37:49;;;;;;;15.63;12.37;;;;;;;;;;4403112;32;20185;-75
2021/06/05 12:40:16;;;;;;;13.02;10.95;;;;;;;;;;4403079;32;20135;-77
2021/06/05 12:42:43;;;;;;;17.73;13.40;;;;;;;;;;4402922;32;20170;-78
2021/06/05 12:45:10;;;;;;;17.12;12.82;;;;;;;;;;4405320;32;20161;-78
2021/06/05 12:47:37;;;;;;;15.98;12.52;;;;;;;;;;4407484;32;20203;-78
2021/06/05 12:50:03;;;;;;;19.37;13.55;;;;;;;;;;4403667;32;20220;-77
2021/06/05 12:52:29;;;;;;;16.92;12.85;;;;;;;;;;4406104;32;20129;-78
2021/06/05 12:55:13;;;;;;;17.58;13.43;;;;;;;;;;4402825;32;20625;-79
2021/06/05 12:57:43;;;;;;;17.05;13.38;;;;;;;;;;4405229;32;20165;-77
2021/06/05 13:00:27;;;;;;;19.17;13.65;;;;;;;;;;4405412;32;20167;-77
2021/06/05 13:02:53;;;;;;;22.83;15.27;;;;;;;;;;4405074;32;20165;-78
2021/06/05 13:05:27;;;;;;;24.63;15.88;;;;;;;;;;4405544;32;20157;-77
2021/06/05 13:07:53;;;;;;;24.85;16.37;;;;;;;;;;4413402;32;20268;-77
2021/06/05 13:10:18;;;;;;;25.83;17.10;;;;;;;;;;4419280;32;20139;-76
2021/06/05 13:12:44;;;;;;;25.02;17.48;;;;;;;;;;4419352;32;20222;-77
2021/06/05 13:15:09;;;;;;;30.10;17.87;;;;;;;;;;4426025;32;20149;-78
2021/06/05 13:17:36;;;;;;;25.92;16.65;;;;;;;;;;4436309;32;20642;-78
2021/06/05 13:20:07;;;;;;;28.38;17.65;;;;;;;;;;4435040;32;20566;-77
2021/06/05 13:22:32;;;;;;;29.05;16.27;;;;;;;;;;4435065;32;20172;-76
2021/06/05 13:25:16;;;;;;;26.75;15.95;;;;;;;;;;4420534;32;20226;-76
2021/06/05 13:28:00;;;;;;;30.50;18.10;;;;;;;;;;4420256;32;20252;-77
2021/06/05 13:30:34;;;;;;;33.25;19.70;;;;;;;;;;4433300;32;20154;-78
2021/06/05 13:32:59;;;;;;;31.25;17.85;;;;;;;;;;4431203;32;20137;-77
2021/06/05 13:35:32;;;;;;;24.63;15.60;;;;;;;;;;4433043;32;20176;-77
2021/06/05 13:37:59;;;;;;;26.58;15.85;;;;;;;;;;4420386;32;20157;-78
2021/06/05 13:40:25;;;;;;;27.02;16.45;;;;;;;;;;4419756;32;20204;-78
2021/06/05 13:42:51;;;;;;;25.33;15.70;;;;;;;;;;4421207;32;20218;-77
2021/06/05 13:45:28;;;;;;;29.25;17.90;;;;;;;;;;4419260;32;20499;-77
2021/06/05 13:47:53;;;;;;;32.22;18.35;;;;;;;;;;4419561;32;20187;-79
2021/06/05 13:50:21;;;;;;;29.60;17.65;;;;;;;;;;4433026;32;20149;-78
2021/06/05 13:52:46;;;;;;;32.83;18.60;;;;;;;;;;4419410;32;20221;-79
2021/06/05 13:55:17;;;;;;;27.42;14.95;;;;;;;;;;4421009;32;20154;-76
2021/06/05 13:57:43;;;;;;;22.42;13.52;;;;;;;;;;4422336;32;20161;-78
2021/06/05 14:00:09;;;;;;;19.90;12.70;;;;;;;;;;4408678;32;20180;-77
2021/06/05 14:02:35;;;;;;;26.12;14.32;;;;;;;;;;4410582;32;20161;-77
2021/06/05 14:05:00;;;;;;;24.30;15.13;;;;;;;;;;4437563;32;20194;-76
2021/06/05 14:07:25;;;;;;;23.02;13.88;;;;;;;;;;4430953;32;20209;-76
2021/06/05 14:09:51;;;;;;;24.10;15.32;;;;;;;;;;4435286;32;20150;-76
2021/06/05 14:12:19;;;;;;;27.15;15.40;;;;;;;;;;4409624;32;20636;-75
2021/06/05 14:14:45;;;;;;;27.05;15.43;;;;;;;;;;4422003;32;20180;-76
2021/06/05 14:17:10;;;;;;;23.70;14.13;;;;;;;;;;4422455;32;20174;-77
2021/06/05 14:19:36;;;;;;;25.02;15.73;;;;;;;;;;4421959;32;20130;-75